createdAt,value
2018-01-27T00:00:20.839Z,14.13
2018-01-27T00:02:50.372Z,13.43
2018-01-27T00:05:19.900Z,14.15
2018-01-27T00:07:49.425Z,13.48
2018-01-27T00:10:18.936Z,13.80
2018-01-27T00:12:48.411Z,13.88
2018-01-27T00:15:18.008Z,15.63
2018-01-27T00:17:47.489Z,13.75
2018-01-27T00:20:17.001Z,13.20
2018-01-27T00:22:51.630Z,13.30
2018-01-27T00:25:21.126Z,13.13
2018-01-27T00:27:50.644Z,13.57
2018-01-27T00:30:20.140Z,12.40
2018-01-27T00:32:49.682Z,12.80
2018-01-27T00:35:19.144Z,10.80
2018-01-27T00:37:48.832Z,12.88
2018-01-27T00:40:18.364Z,12.35
2018-01-27T00:42:47.883Z,12.00
2018-01-27T00:45:17.403Z,11.75
2018-01-27T00:47:46.889Z,11.55
2018-01-27T00:50:16.439Z,13.10
2018-01-27T00:52:45.919Z,13.48
2018-01-27T00:55:15.455Z,13.10
2018-01-27T00:57:44.953Z,13.60
2018-01-27T01:00:14.463Z,12.57
2018-01-27T01:02:44.043Z,11.98
2018-01-27T01:05:13.603Z,12.07
2018-01-27T01:07:43.076Z,12.73
2018-01-27T01:10:12.540Z,13.30
2018-01-27T01:12:42.069Z,14.50
2018-01-27T01:15:11.596Z,15.18
2018-01-27T01:17:41.099Z,13.27
2018-01-27T01:20:10.631Z,13.43
2018-01-27T01:22:40.167Z,13.65
2018-01-27T01:25:09.782Z,13.07
2018-01-27T01:27:39.316Z,13.10
2018-01-27T01:30:08.872Z,13.10
2018-01-27T01:32:38.475Z,13.52
2018-01-27T01:35:07.967Z,13.38
2018-01-27T01:37:37.450Z,12.27
2018-01-27T01:40:06.975Z,11.70
2018-01-27T01:42:42.355Z,12.00
2018-01-27T01:45:11.945Z,12.25
2018-01-27T01:47:41.450Z,12.60
2018-01-27T01:50:10.988Z,12.68
2018-01-27T01:52:40.479Z,11.57
2018-01-27T01:55:10.042Z,14.27
2018-01-27T01:57:39.515Z,14.23
2018-01-27T02:00:09.032Z,12.93
2018-01-27T02:02:38.580Z,13.93
2018-01-27T02:05:08.058Z,14.23
2018-01-27T02:07:37.558Z,13.65
2018-01-27T02:10:07.075Z,12.50
2018-01-27T02:12:36.786Z,13.65
2018-01-27T02:15:06.276Z,12.82
2018-01-27T02:17:35.781Z,13.73
2018-01-27T02:20:05.285Z,13.00
2018-01-27T02:22:34.970Z,13.57
2018-01-27T02:25:04.449Z,13.55
2018-01-27T02:27:34.052Z,13.23
2018-01-27T02:30:03.576Z,14.38
2018-01-27T02:32:33.060Z,13.70
2018-01-27T02:35:02.614Z,13.18
2018-01-27T02:37:32.115Z,13.20
2018-01-27T02:40:01.685Z,13.88
2018-01-27T02:42:31.166Z,13.40
2018-01-27T02:45:00.809Z,14.23
2018-01-27T02:47:30.326Z,13.13
2018-01-27T02:49:59.854Z,12.95
2018-01-27T02:52:29.372Z,14.20
2018-01-27T02:54:58.883Z,12.18
2018-01-27T02:57:28.532Z,14.50
2018-01-27T02:59:58.028Z,12.60
2018-01-27T03:02:27.542Z,12.95
2018-01-27T03:04:57.053Z,15.07
2018-01-27T03:07:26.573Z,13.75
2018-01-27T03:09:56.110Z,13.07
2018-01-27T03:12:25.636Z,13.80
2018-01-27T03:14:55.172Z,13.55
2018-01-27T03:17:24.646Z,12.52
2018-01-27T03:19:54.150Z,13.05
2018-01-27T03:22:23.682Z,13.23
2018-01-27T03:24:53.166Z,14.57
2018-01-27T03:27:22.718Z,14.20
2018-01-27T03:29:52.289Z,15.13
2018-01-27T03:32:21.824Z,14.87
2018-01-27T03:34:51.345Z,13.52
2018-01-27T03:37:20.866Z,14.02
2018-01-27T03:39:50.405Z,15.77
2018-01-27T03:42:20.021Z,13.90
2018-01-27T03:44:49.511Z,12.95
2018-01-27T03:47:19.944Z,14.40
2018-01-27T03:49:49.484Z,12.93
2018-01-27T03:52:19.225Z,14.55
2018-01-27T03:54:48.715Z,14.75
2018-01-27T03:57:18.373Z,15.25
2018-01-27T03:59:47.866Z,14.07
2018-01-27T04:02:17.404Z,12.63
2018-01-27T04:04:46.937Z,13.80
2018-01-27T04:07:16.480Z,13.57
2018-01-27T04:09:46.003Z,14.52
2018-01-27T04:12:16.519Z,15.32
2018-01-27T04:14:46.200Z,15.60
2018-01-27T04:17:15.793Z,13.18
2018-01-27T04:19:45.362Z,12.15
2018-01-27T04:22:15.104Z,13.75
2018-01-27T04:24:44.648Z,12.73
2018-01-27T04:27:14.179Z,12.95
2018-01-27T04:29:43.733Z,14.70
2018-01-27T04:32:13.319Z,14.30
2018-01-27T04:34:42.857Z,12.52
2018-01-27T04:37:12.389Z,14.65
2018-01-27T04:39:41.931Z,13.60
2018-01-27T04:42:11.450Z,15.30
2018-01-27T04:44:40.978Z,14.05
2018-01-27T04:47:10.520Z,14.45
2018-01-27T04:49:40.080Z,13.93
2018-01-27T04:52:09.589Z,13.68
2018-01-27T04:54:39.320Z,13.80
2018-01-27T04:57:08.833Z,14.23
2018-01-27T04:59:38.360Z,14.30
2018-01-27T05:02:07.846Z,14.87
2018-01-27T05:04:37.379Z,15.38
2018-01-27T05:07:06.930Z,15.82
2018-01-27T05:09:36.418Z,16.23
2018-01-27T05:12:05.903Z,14.18
2018-01-27T05:14:35.416Z,11.98
2018-01-27T05:17:04.911Z,13.23
2018-01-27T05:19:34.427Z,13.88
2018-01-27T05:22:03.969Z,14.85
2018-01-27T05:24:33.453Z,12.98
2018-01-27T05:27:02.968Z,15.40
2018-01-27T05:29:32.558Z,12.68
2018-01-27T05:32:02.062Z,14.50
2018-01-27T05:34:31.607Z,13.40
2018-01-27T05:37:01.132Z,13.65
2018-01-27T05:39:30.675Z,13.27
2018-01-27T05:42:00.932Z,12.75
2018-01-27T05:44:30.421Z,11.70
2018-01-27T05:46:59.935Z,13.25
2018-01-27T05:49:29.429Z,13.98
2018-01-27T05:51:59.023Z,14.50
2018-01-27T05:54:29.398Z,12.90
2018-01-27T05:56:58.859Z,14.68
2018-01-27T05:59:28.473Z,14.05
2018-01-27T06:01:57.957Z,14.60
2018-01-27T06:04:27.483Z,13.55
2018-01-27T06:06:56.964Z,13.80
2018-01-27T06:09:26.503Z,14.70
2018-01-27T06:11:56.171Z,15.85
2018-01-27T06:14:25.668Z,15.30
2018-01-27T06:16:55.181Z,12.00
2018-01-27T06:19:24.697Z,13.48
2018-01-27T06:21:54.217Z,13.93
2018-01-27T06:24:23.719Z,13.20
2018-01-27T06:26:53.223Z,12.75
2018-01-27T06:29:22.751Z,14.00
2018-01-27T06:31:52.350Z,13.10
2018-01-27T06:34:21.838Z,13.75
2018-01-27T06:36:51.330Z,13.80
2018-01-27T06:39:20.792Z,12.63
2018-01-27T06:41:50.531Z,13.23
2018-01-27T06:44:20.012Z,12.60
2018-01-27T06:46:49.608Z,12.80
2018-01-27T06:49:19.100Z,13.13
2018-01-27T06:51:48.618Z,13.70
2018-01-27T06:54:18.129Z,14.07
2018-01-27T06:56:47.651Z,13.30
2018-01-27T06:59:17.166Z,13.70
2018-01-27T07:01:46.669Z,12.98
2018-01-27T07:04:16.186Z,12.13
2018-01-27T07:06:45.848Z,13.50
2018-01-27T07:09:15.364Z,13.10
2018-01-27T07:11:44.916Z,12.35
2018-01-27T07:14:14.412Z,12.50
2018-01-27T07:16:43.898Z,12.85
2018-01-27T07:19:13.402Z,12.65
2018-01-27T07:21:42.896Z,12.02
2018-01-27T07:24:12.419Z,12.90
2018-01-27T07:26:41.905Z,12.48
2018-01-27T07:29:11.442Z,13.50
2018-01-27T07:31:40.928Z,13.40
2018-01-27T07:34:10.455Z,14.50
2018-01-27T07:36:39.985Z,12.50
2018-01-27T07:39:09.473Z,13.05
2018-01-27T07:41:39.050Z,16.00
2018-01-27T07:44:08.557Z,15.82
2018-01-27T07:46:38.186Z,15.75
2018-01-27T07:49:07.661Z,17.10
2018-01-27T07:51:37.183Z,15.18
2018-01-27T07:54:06.675Z,14.38
2018-01-27T07:56:36.173Z,13.75
2018-01-27T07:59:05.779Z,16.10
2018-01-27T08:01:35.238Z,13.43
2018-01-27T08:04:04.783Z,13.48
2018-01-27T08:06:34.293Z,14.98
2018-01-27T08:09:03.806Z,13.95
2018-01-27T08:11:33.326Z,11.82
2018-01-27T08:14:02.845Z,14.38
2018-01-27T08:16:32.363Z,13.30
2018-01-27T08:19:01.862Z,12.70
2018-01-27T08:21:31.380Z,13.70
2018-01-27T08:24:00.875Z,13.80
2018-01-27T08:26:30.466Z,12.80
2018-01-27T08:28:59.954Z,12.70
2018-01-27T08:31:29.595Z,11.32
2018-01-27T08:33:59.072Z,15.63
2018-01-27T08:36:28.553Z,17.95
2018-01-27T08:38:58.035Z,18.15
2018-01-27T08:41:27.676Z,19.77
2018-01-27T08:43:57.159Z,18.45
2018-01-27T08:46:26.668Z,22.48
2018-01-27T08:48:56.171Z,23.23
2018-01-27T08:51:25.803Z,22.60
2018-01-27T08:53:55.270Z,17.40
2018-01-27T08:56:24.747Z,16.08
2018-01-27T08:58:54.296Z,15.30
2018-01-27T09:01:23.823Z,14.10
2018-01-27T09:03:53.312Z,14.05
2018-01-27T09:06:22.969Z,13.48
2018-01-27T09:08:52.525Z,16.00
2018-01-27T09:11:22.084Z,13.77
2018-01-27T09:13:51.695Z,14.95
2018-01-27T09:16:21.193Z,16.48
2018-01-27T09:18:50.743Z,15.45
2018-01-27T09:21:20.304Z,14.60
2018-01-27T09:23:49.782Z,16.67
2018-01-27T09:26:19.310Z,15.18
2018-01-27T09:28:48.827Z,16.00
2018-01-27T09:31:18.365Z,14.00
2018-01-27T09:33:47.832Z,14.35
2018-01-27T09:36:17.347Z,16.70
2018-01-27T09:38:46.863Z,16.95
2018-01-27T09:41:16.410Z,19.50
2018-01-27T09:43:45.909Z,16.85
2018-01-27T09:46:15.458Z,16.00
2018-01-27T09:48:44.950Z,14.98
2018-01-27T09:51:14.486Z,16.75
2018-01-27T09:53:44.026Z,16.58
2018-01-27T09:56:13.527Z,17.95
2018-01-27T09:58:43.052Z,17.42
2018-01-27T10:01:12.538Z,20.17
2018-01-27T10:03:42.037Z,16.52
2018-01-27T10:06:11.584Z,19.15
2018-01-27T10:08:41.076Z,17.30
2018-01-27T10:11:10.825Z,16.52
2018-01-27T10:13:40.297Z,16.30
2018-01-27T10:16:09.847Z,16.87
2018-01-27T10:18:39.428Z,16.60
2018-01-27T10:21:08.984Z,16.25
2018-01-27T10:23:38.678Z,17.52
2018-01-27T10:26:08.147Z,18.12
2018-01-27T10:28:37.684Z,17.33
2018-01-27T10:31:08.002Z,15.35
2018-01-27T10:33:37.539Z,15.55
2018-01-27T10:36:07.015Z,17.50
2018-01-27T10:38:36.534Z,16.90
2018-01-27T10:41:06.037Z,18.33
2018-01-27T10:43:35.536Z,18.55
2018-01-27T10:46:05.142Z,15.70
2018-01-27T10:48:34.662Z,14.80
2018-01-27T10:51:04.146Z,16.98
2018-01-27T10:53:33.667Z,14.25
2018-01-27T10:56:03.245Z,15.45
2018-01-27T10:58:32.732Z,20.37
2018-01-27T11:01:02.282Z,18.02
2018-01-27T11:03:31.788Z,18.87
2018-01-27T11:06:01.270Z,17.35
2018-01-27T11:08:30.741Z,19.20
2018-01-27T11:11:00.233Z,21.00
2018-01-27T11:13:29.714Z,22.58
2018-01-27T11:15:59.218Z,17.60
2018-01-27T11:18:28.703Z,14.93
2018-01-27T11:20:58.216Z,15.38
2018-01-27T11:23:27.677Z,18.83
2018-01-27T11:25:57.204Z,17.35
2018-01-27T11:28:26.666Z,17.98
2018-01-27T11:30:56.352Z,17.85
2018-01-27T11:33:25.829Z,16.83
2018-01-27T11:35:55.321Z,16.95
2018-01-27T11:38:24.804Z,16.73
2018-01-27T11:40:54.314Z,18.62
2018-01-27T11:43:23.813Z,19.08
2018-01-27T11:45:53.304Z,17.45
2018-01-27T11:48:22.848Z,17.60
2018-01-27T11:50:52.330Z,20.67
2018-01-27T11:53:21.845Z,20.30
2018-01-27T11:55:51.368Z,19.92
2018-01-27T11:58:20.895Z,20.45
2018-01-27T12:00:50.380Z,21.95
2018-01-27T12:03:19.875Z,21.08
2018-01-27T12:05:49.391Z,20.48
2018-01-27T12:08:18.841Z,21.35
2018-01-27T12:10:48.357Z,22.10
2018-01-27T12:13:17.825Z,20.65
2018-01-27T12:15:47.384Z,21.67
2018-01-27T12:18:16.898Z,22.80
2018-01-27T12:20:46.478Z,22.67
2018-01-27T12:23:15.976Z,23.67
2018-01-27T12:25:45.469Z,21.73
2018-01-27T12:28:15.012Z,21.75
2018-01-27T12:30:44.496Z,23.08
2018-01-27T12:33:14.004Z,21.83
2018-01-27T12:35:43.485Z,22.13
2018-01-27T12:38:13.120Z,22.50
2018-01-27T12:40:42.584Z,21.90
2018-01-27T12:43:12.099Z,21.62
2018-01-27T12:45:41.812Z,21.25
2018-01-27T12:48:11.270Z,22.42
2018-01-27T12:50:40.739Z,19.42
2018-01-27T12:53:10.253Z,19.45
2018-01-27T12:55:39.743Z,19.65
2018-01-27T12:58:09.624Z,20.40
2018-01-27T13:00:39.122Z,22.08
2018-01-27T13:03:08.577Z,21.17
2018-01-27T13:05:38.092Z,17.58
2018-01-27T13:08:07.573Z,20.02
2018-01-27T13:10:37.196Z,18.75
2018-01-27T13:13:06.708Z,19.62
2018-01-27T13:15:36.190Z,18.45
2018-01-27T13:18:05.800Z,20.35
2018-01-27T13:20:35.267Z,19.30
2018-01-27T13:23:04.759Z,18.98
2018-01-27T13:25:34.284Z,18.23
2018-01-27T13:28:03.741Z,21.10
2018-01-27T13:30:33.277Z,20.25
2018-01-27T13:33:02.736Z,20.08
2018-01-27T13:35:32.243Z,21.15
2018-01-27T13:38:01.728Z,20.15
2018-01-27T13:40:31.281Z,22.95
2018-01-27T13:43:00.733Z,20.90
2018-01-27T13:45:30.239Z,21.45
2018-01-27T13:47:59.720Z,22.37
2018-01-27T13:50:29.224Z,21.73
2018-01-27T13:52:58.701Z,21.77
2018-01-27T13:55:28.210Z,23.17
2018-01-27T13:57:57.690Z,21.27
2018-01-27T14:00:27.202Z,21.60
2018-01-27T14:02:56.661Z,21.37
2018-01-27T14:05:26.164Z,22.20
2018-01-27T14:07:55.643Z,22.70
2018-01-27T14:10:25.250Z,21.92
2018-01-27T14:12:54.767Z,20.45
2018-01-27T14:15:24.271Z,21.80
2018-01-27T14:17:53.756Z,21.08
2018-01-27T14:20:23.300Z,21.20
2018-01-27T14:22:53.027Z,20.30
2018-01-27T14:25:22.793Z,21.20
2018-01-27T14:27:52.260Z,22.62
2018-01-27T14:30:21.763Z,20.90
2018-01-27T14:32:51.277Z,21.95
2018-01-27T14:35:20.751Z,21.98
2018-01-27T14:37:50.492Z,21.25
2018-01-27T14:40:20.012Z,21.37
2018-01-27T14:42:49.528Z,19.95
2018-01-27T14:45:19.055Z,20.10
2018-01-27T14:47:48.682Z,19.52
2018-01-27T14:50:18.141Z,22.35
2018-01-27T15:49:37.266Z,23.05
2018-01-27T15:52:06.797Z,19.02
2018-01-27T16:38:13.545Z,20.33
2018-01-27T16:40:43.038Z,19.05
2018-01-27T16:43:12.634Z,17.95
2018-01-27T16:45:42.168Z,19.50
2018-01-27T16:58:15.669Z,19.08
2018-01-27T17:00:45.278Z,17.70
2018-01-27T17:03:14.832Z,19.30
2018-01-27T17:05:44.460Z,17.58
2018-01-27T17:08:14.052Z,18.05
2018-01-27T17:10:43.576Z,16.58
2018-01-27T17:13:13.158Z,17.40
2018-01-27T17:15:42.689Z,16.83
2018-01-27T17:18:12.261Z,17.30
2018-01-27T17:20:41.697Z,17.92
2018-01-27T17:23:11.233Z,16.95
2018-01-27T17:25:40.740Z,14.80
2018-01-27T17:28:10.281Z,17.80
2018-01-27T17:30:39.854Z,16.35
2018-01-27T17:33:09.528Z,14.30
2018-01-27T17:35:39.366Z,16.50
2018-01-27T17:38:08.858Z,16.33
2018-01-27T17:40:38.551Z,15.80
2018-01-27T17:43:08.077Z,16.45
2018-01-27T17:45:37.580Z,15.57
2018-01-27T17:48:07.047Z,17.17
2018-01-27T17:50:36.576Z,17.65
2018-01-27T17:53:06.126Z,16.17
2018-01-27T17:55:35.683Z,18.17
2018-01-27T17:58:05.247Z,17.98
2018-01-27T18:00:34.757Z,17.80
2018-01-27T18:03:04.294Z,17.40
2018-01-27T18:05:33.772Z,17.08
2018-01-27T18:08:03.298Z,16.62
2018-01-27T18:10:32.802Z,17.27
2018-01-27T18:13:02.466Z,16.48
2018-01-27T18:15:32.093Z,16.52
2018-01-27T18:18:01.618Z,16.37
2018-01-27T18:20:31.104Z,17.75
2018-01-27T18:23:00.655Z,15.93
2018-01-27T18:25:30.163Z,15.15
2018-01-27T18:27:59.745Z,16.52
2018-01-27T18:30:29.233Z,15.15
2018-01-27T18:32:58.883Z,16.55
2018-01-27T18:35:28.341Z,15.68
2018-01-27T18:37:57.842Z,14.05
2018-01-27T18:40:27.347Z,13.95
2018-01-27T18:42:56.854Z,12.65
2018-01-27T18:45:26.454Z,12.50
2018-01-27T18:47:55.981Z,14.32
2018-01-27T18:50:25.455Z,13.70
2018-01-27T18:52:55.069Z,12.13
2018-01-27T18:55:24.577Z,13.02
2018-01-27T18:57:54.165Z,14.40
2018-01-27T19:00:23.674Z,13.68
2018-01-27T19:02:53.172Z,14.05
2018-01-27T19:05:22.676Z,13.43
2018-01-27T19:07:52.189Z,13.15
2018-01-27T19:10:21.719Z,13.48
2018-01-27T19:12:51.333Z,12.07
2018-01-27T19:15:20.854Z,13.00
2018-01-27T19:17:50.349Z,12.02
2018-01-27T19:20:19.960Z,13.85
2018-01-27T19:22:49.462Z,13.35
2018-01-27T19:25:19.027Z,13.15
2018-01-27T19:27:48.520Z,12.68
2018-01-27T19:30:18.256Z,12.30
2018-01-27T19:32:47.808Z,13.57
2018-01-27T19:35:17.337Z,11.93
2018-01-27T19:37:47.500Z,11.77
2018-01-27T19:40:16.995Z,13.20
2018-01-27T19:42:46.540Z,12.20
2018-01-27T19:45:16.042Z,12.30
2018-01-27T19:47:45.561Z,12.23
2018-01-27T19:50:15.017Z,11.63
2018-01-27T19:52:44.782Z,12.00
2018-01-27T19:55:14.298Z,11.30
2018-01-27T19:57:43.808Z,11.75
2018-01-27T20:00:13.336Z,12.70
2018-01-27T20:02:43.115Z,11.52
2018-01-27T20:05:12.650Z,11.68
2018-01-27T20:07:42.306Z,11.35
2018-01-27T20:10:11.869Z,10.60
2018-01-27T20:12:41.410Z,10.80
2018-01-27T20:15:10.890Z,11.85
2018-01-27T20:17:40.425Z,10.90
2018-01-27T20:20:09.936Z,12.02
2018-01-27T20:22:39.467Z,10.52
2018-01-27T20:25:09.048Z,12.05
2018-01-27T20:27:38.673Z,11.00
2018-01-27T20:30:08.352Z,11.70
2018-01-27T20:32:37.908Z,11.02
2018-01-27T20:35:07.448Z,11.40
2018-01-27T20:37:36.952Z,10.38
2018-01-27T20:40:06.493Z,10.88
2018-01-27T20:42:36.028Z,11.60
2018-01-27T20:45:05.548Z,10.23
2018-01-27T20:47:35.232Z,9.50
2018-01-27T20:50:04.734Z,9.55
2018-01-27T20:52:34.269Z,10.05
2018-01-27T20:55:03.750Z,8.75
2018-01-27T20:57:33.293Z,10.10
2018-01-27T21:00:02.774Z,8.95
2018-01-27T21:02:32.316Z,10.25
2018-01-27T21:05:01.997Z,8.95
2018-01-27T21:07:31.491Z,9.48
2018-01-27T21:10:01.131Z,9.85
2018-01-27T21:12:30.604Z,9.20
2018-01-27T21:15:00.145Z,8.95
2018-01-27T21:17:29.668Z,9.43
2018-01-27T21:19:59.176Z,9.18
2018-01-27T21:22:28.661Z,10.05
2018-01-27T21:24:58.181Z,10.13
2018-01-27T21:27:27.783Z,9.48
2018-01-27T21:29:57.320Z,10.43
2018-01-27T21:32:26.787Z,9.15
2018-01-27T21:34:56.372Z,8.90
2018-01-27T21:37:25.865Z,8.82
2018-01-27T21:39:55.440Z,9.27
2018-01-27T21:42:25.109Z,9.07
2018-01-27T21:44:54.608Z,8.18
2018-01-27T21:47:24.119Z,9.45
2018-01-27T21:49:53.718Z,9.75
2018-01-27T21:52:23.177Z,8.40
2018-01-27T21:54:52.685Z,10.30
2018-01-27T21:57:22.165Z,9.45
2018-01-27T21:59:51.664Z,8.68
2018-01-27T22:02:21.151Z,8.55
2018-01-27T22:04:50.727Z,8.55
2018-01-27T22:07:20.190Z,9.20
2018-01-27T22:09:49.855Z,8.23
2018-01-27T22:12:19.542Z,6.90
2018-01-27T22:14:49.052Z,8.82
2018-01-27T22:17:18.535Z,8.52
2018-01-27T22:19:48.040Z,8.45
2018-01-27T22:22:17.506Z,7.20
2018-01-27T22:24:47.071Z,7.45
2018-01-27T22:27:16.574Z,8.00
2018-01-27T22:29:46.043Z,6.37
2018-01-27T22:32:15.553Z,7.25
2018-01-27T22:34:45.158Z,7.62
2018-01-27T22:37:14.793Z,7.53
2018-01-27T22:39:44.313Z,8.25
2018-01-27T22:42:13.820Z,7.85
2018-01-27T22:44:43.344Z,7.55
2018-01-27T22:47:12.820Z,7.25
2018-01-27T22:49:42.327Z,6.40
2018-01-27T22:52:11.804Z,7.05
2018-01-27T22:54:41.308Z,7.30
2018-01-27T22:57:10.767Z,7.93
2018-01-27T22:59:40.274Z,6.93
2018-01-27T23:02:09.807Z,8.32
2018-01-27T23:04:39.365Z,7.05
2018-01-27T23:07:08.852Z,7.28
2018-01-27T23:09:38.526Z,7.20
2018-01-27T23:12:07.988Z,7.15
2018-01-27T23:14:37.589Z,7.10
2018-01-27T23:17:07.063Z,7.40
2018-01-27T23:19:36.691Z,7.18
2018-01-27T23:22:06.131Z,8.05
2018-01-27T23:24:35.699Z,7.35
2018-01-27T23:27:05.156Z,7.40
2018-01-27T23:29:34.662Z,7.12
2018-01-27T23:32:04.152Z,6.40
2018-01-27T23:34:33.720Z,7.40
2018-01-27T23:37:03.179Z,7.78
2018-01-27T23:39:32.676Z,7.12
2018-01-27T23:42:02.199Z,6.50
2018-01-27T23:44:31.763Z,7.00
2018-01-27T23:47:01.737Z,7.93
2018-01-27T23:49:31.190Z,7.20
2018-01-27T23:52:00.904Z,7.10
2018-01-27T23:54:30.377Z,7.18
2018-01-27T23:56:59.894Z,6.70
2018-01-27T23:59:29.413Z,6.60
